Time;durP1;ratioP1;P1;durP2;ratioP2;P2;SDS_P1;SDS_P2;PMS_P1;PMS_P2;Temp;Humidity;BMP_temperature;BMP_pressure;BME280_temperature;BME280_humidity;BME280_pressure;Samples;Min_cycle;Max_cycle;Signal;HPM_P1;HPM_P2
2021/11/25 00:01:20;;;;;;;26.60;15.60;;;;;;;3.80;78.11;100158.94;5016775;28;20163;-54
2021/11/25 00:03:47;;;;;;;25.60;14.98;;;;;;;3.74;79.47;100161.72;5020496;28;20449;-51
2021/11/25 00:06:13;;;;;;;24.70;14.30;;;;;;;3.75;79.36;100152.09;5026314;28;20061;-55
2021/11/25 00:08:40;;;;;;;22.25;14.35;;;;;;;3.73;79.09;100146.91;5025526;28;20056;-52
2021/11/25 00:11:07;;;;;;;28.38;15.80;;;;;;;3.67;79.98;100147.03;5015959;28;20056;-53
2021/11/25 00:13:34;;;;;;;26.83;15.55;;;;;;;3.67;79.62;100149.66;5020351;28;20041;-59
2021/11/25 00:16:02;;;;;;;25.95;15.02;;;;;;;3.61;78.95;100147.19;5026806;28;20443;-55
2021/11/25 00:18:29;;;;;;;26.70;16.15;;;;;;;3.58;79.06;100151.63;5029737;28;20049;-55
2021/11/25 00:20:56;;;;;;;27.05;16.20;;;;;;;3.48;80.07;100143.97;5013437;28;20554;-53
2021/11/25 00:23:22;;;;;;;29.27;16.23;;;;;;;3.42;80.84;100138.88;5023589;28;20064;-54
2021/11/25 00:25:49;;;;;;;27.83;16.42;;;;;;;3.42;79.99;100138.88;5027204;28;20101;-53
2021/11/25 00:28:15;;;;;;;29.17;16.02;;;;;;;3.43;80.12;100130.13;5025156;28;20064;-55
2021/11/25 00:30:42;;;;;;;30.23;16.08;;;;;;;3.44;79.87;100142.31;5014777;28;20053;-54
2021/11/25 00:33:08;;;;;;;26.85;15.35;;;;;;;3.42;80.44;100136.25;5023828;28;20419;-52
2021/11/25 00:35:35;;;;;;;25.60;15.55;;;;;;;3.46;80.48;100139.69;5026339;28;20128;-53
2021/11/25 00:38:02;;;;;;;24.95;14.73;;;;;;;3.53;80.61;100136.88;5026010;28;20115;-55
2021/11/25 00:40:28;;;;;;;24.52;14.55;;;;;;;3.54;80.35;100129.88;5020615;28;20057;-52
2021/11/25 00:42:55;;;;;;;27.80;15.20;;;;;;;3.52;79.95;100116.81;5021731;28;20067;-53
2021/11/25 00:45:22;;;;;;;26.45;15.27;;;;;;;3.49;79.80;100118.66;5023449;28;20270;-53
2021/11/25 00:47:48;;;;;;;26.55;15.30;;;;;;;3.47;79.53;100117.81;5025738;28;20136;-53
2021/11/25 00:50:17;;;;;;;26.85;15.65;;;;;;;3.46;79.76;100116.94;5024062;28;20050;-53
2021/11/25 00:52:44;;;;;;;28.30;16.08;;;;;;;3.46;79.98;100113.50;5020542;28;20423;-53
2021/11/25 00:55:11;;;;;;;27.40;15.55;;;;;;;3.46;79.66;100109.09;5027094;28;20525;-51
2021/11/25 00:57:38;;;;;;;23.00;14.23;;;;;;;3.51;78.64;100112.47;5024337;28;20037;-53
2021/11/25 01:00:09;;;;;;;26.40;15.80;;;;;;;3.39;78.46;100093.59;5022414;28;20156;-55
2021/11/25 01:02:35;;;;;;;28.40;15.80;;;;;;;3.47;78.16;100104.72;5017559;28;20450;-53
2021/11/25 01:05:03;;;;;;;27.48;15.00;;;;;;;3.43;77.46;100109.19;5009891;28;20049;-52
2021/11/25 01:07:31;;;;;;;26.52;15.63;;;;;;;3.43;78.22;100110.94;5018772;28;20038;-56
2021/11/25 01:09:59;;;;;;;25.25;14.88;;;;;;;3.28;78.24;100080.75;5019798;28;20041;-54
2021/11/25 01:12:28;;;;;;;25.92;15.50;;;;;;;3.46;77.50;100113.50;5020618;28;20056;-55
2021/11/25 01:14:54;;;;;;;28.15;15.93;;;;;;;3.44;77.74;100099.59;5019662;28;20072;-53
2021/11/25 01:17:21;;;;;;;27.88;16.48;;;;;;;3.35;77.50;100084.06;5025844;28;20046;-54
2021/11/25 01:19:47;;;;;;;30.48;16.75;;;;;;;3.41;77.65;100099.66;5016633;28;20080;-53
2021/11/25 01:22:14;;;;;;;26.88;15.52;;;;;;;3.40;78.09;100096.16;5019428;28;20422;-52
2021/11/25 01:24:41;;;;;;;28.60;16.20;;;;;;;3.39;77.86;100096.19;5021278;28;20132;-52
2021/11/25 01:27:08;;;;;;;29.17;16.08;;;;;;;3.38;77.16;100097.09;5024686;28;20049;-53
2021/11/25 01:29:35;;;;;;;30.52;17.48;;;;;;;3.41;76.90;100097.03;5021777;28;20042;-54
2021/11/25 01:32:02;;;;;;;28.15;15.98;;;;;;;3.39;76.82;100091.81;5012293;28;20038;-54
2021/11/25 01:34:28;;;;;;;27.60;15.75;;;;;;;3.36;77.53;100097.13;5026851;28;20049;-53
2021/11/25 01:36:55;;;;;;;27.88;15.68;;;;;;;3.36;76.78;100101.50;5021598;28;20041;-52
2021/11/25 01:39:21;;;;;;;25.05;14.65;;;;;;;3.36;76.85;100097.13;5022089;28;20052;-51
2021/11/25 01:41:48;;;;;;;29.25;15.95;;;;;;;3.41;76.98;100087.41;5014405;28;20060;-53
2021/11/25 01:44:15;;;;;;;28.73;16.17;;;;;;;3.41;76.42;100078.72;5020678;28;20050;-51
2021/11/25 01:46:43;;;;;;;30.73;16.70;;;;;;;3.39;76.74;100078.75;5024157;28;20041;-54
2021/11/25 01:49:09;;;;;;;28.58;16.15;;;;;;;3.41;76.94;100083.94;5024040;28;20049;-51
2021/11/25 01:51:36;;;;;;;26.95;16.23;;;;;;;3.32;76.28;100068.44;5011586;28;20046;-51
2021/11/25 01:54:03;;;;;;;29.83;15.57;;;;;;;3.39;76.74;100073.50;5023864;28;20045;-54
2021/11/25 01:56:29;;;;;;;29.65;15.77;;;;;;;3.39;76.94;100072.66;5022506;28;20553;-53
2021/11/25 01:58:56;;;;;;;26.98;16.33;;;;;;;3.42;77.09;100064.72;5024506;28;20510;-53
2021/11/25 02:01:24;;;;;;;27.00;15.75;;;;;;;3.41;76.45;100060.38;5014626;28;20535;-53
2021/11/25 02:03:54;;;;;;;28.30;15.85;;;;;;;3.35;76.29;100048.28;5025527;28;20049;-54
2021/11/25 02:06:20;;;;;;;29.67;16.92;;;;;;;3.36;76.59;100057.00;5020587;28;20093;-54
2021/11/25 02:08:47;;;;;;;30.35;17.15;;;;;;;3.38;76.62;100044.75;5025830;28;20068;-53
2021/11/25 02:11:14;;;;;;;31.60;17.63;;;;;;;3.36;76.05;100051.78;5011312;28;20576;-55
2021/11/25 02:13:40;;;;;;;28.52;16.65;;;;;;;3.35;76.17;100050.91;5028483;28;20392;-53
2021/11/25 02:16:07;;;;;;;27.98;16.35;;;;;;;3.31;75.64;100036.16;5025388;28;20063;-54
2021/11/25 02:18:37;;;;;;;27.42;16.40;;;;;;;3.29;76.78;100042.34;5021048;28;20045;-52
2021/11/25 02:21:04;;;;;;;27.40;16.30;;;;;;;3.26;76.79;100037.19;5018154;28;22084;-53
2021/11/25 02:23:31;;;;;;;28.85;16.63;;;;;;;3.27;76.73;100023.22;5019026;28;20128;-53
2021/11/25 02:25:59;;;;;;;28.92;17.75;;;;;;;3.28;75.92;100038.00;5023833;28;20038;-52
2021/11/25 02:28:29;;;;;;;34.70;18.27;;;;;;;3.28;76.42;100038.00;5020694;28;20049;-53
2021/11/25 02:30:55;;;;;;;31.17;18.08;;;;;;;3.30;76.06;100036.22;5013161;28;20065;-54
2021/11/25 02:33:22;;;;;;;31.55;17.60;;;;;;;3.30;76.39;100038.84;5021564;28;20042;-54
2021/11/25 02:35:50;;;;;;;30.23;17.45;;;;;;;3.30;76.38;100041.47;5027149;28;20061;-53
2021/11/25 02:38:17;;;;;;;31.25;17.15;;;;;;;3.24;77.61;100049.44;5021271;28;20052;-53
2021/11/25 02:40:49;;;;;;;31.83;17.65;;;;;;;3.21;76.69;100052.13;5017268;28;20053;-54
2021/11/25 02:43:18;;;;;;;31.27;18.05;;;;;;;3.17;77.14;100039.09;5016341;28;20046;-54
2021/11/25 02:45:48;;;;;;;27.92;16.02;;;;;;;3.16;77.14;100040.00;5024454;28;20466;-54
2021/11/25 02:48:17;;;;;;;30.30;17.17;;;;;;;3.12;76.83;100030.53;5024217;28;20045;-53
2021/11/25 02:50:44;;;;;;;31.73;17.65;;;;;;;3.17;77.26;100036.47;5014979;28;20056;-52
2021/11/25 02:53:12;;;;;;;31.98;17.30;;;;;;;3.19;77.46;100031.22;5020928;28;20045;-57
2021/11/25 02:55:39;;;;;;;32.80;17.30;;;;;;;3.27;77.70;100036.28;5029313;28;20063;-56
2021/11/25 02:58:06;;;;;;;31.95;17.27;;;;;;;3.26;76.88;100024.97;5023108;28;20038;-51
2021/11/25 03:00:39;;;;;;;34.40;17.75;;;;;;;3.26;77.33;100021.50;5022261;28;20050;-53
2021/11/25 03:03:10;;;;;;;32.38;17.88;;;;;;;3.17;78.05;100028.63;5022855;28;20049;-53
2021/11/25 03:05:38;;;;;;;;;;;;;;;3.07;77.72;100021.03;5024514;28;20037;-53
2021/11/25 03:08:06;;;;;;;33.35;18.75;;;;;;;3.07;77.87;100021.91;5023542;28;19975;-54
2021/11/25 03:10:38;;;;;;;37.90;18.77;;;;;;;3.09;78.69;100014.88;5022606;28;20054;-54
2021/11/25 03:13:06;;;;;;;33.92;18.20;;;;;;;3.09;78.11;100017.50;5011659;28;20054;-54
2021/11/25 03:15:35;;;;;;;32.78;18.55;;;;;;;3.10;78.35;100023.59;5021786;28;20515;-52
2021/11/25 03:18:01;;;;;;;31.25;17.98;;;;;;;3.08;77.86;100013.16;5025146;28;20041;-53
2021/11/25 03:20:28;;;;;;;32.20;17.98;;;;;;;3.10;78.62;100011.38;5021027;28;20037;-52
2021/11/25 03:22:54;;;;;;;34.10;18.48;;;;;;;3.06;77.31;100012.34;5011599;28;20091;-54
2021/11/25 03:25:22;;;;;;;32.42;17.88;;;;;;;3.11;78.40;100010.47;5020062;28;20061;-52
2021/11/25 03:27:51;;;;;;;32.13;18.17;;;;;;;3.16;77.11;100011.22;5021787;28;20656;-52
2021/11/25 03:30:18;;;;;;;34.13;18.40;;;;;;;3.12;77.63;100012.19;5023042;28;20626;-53
2021/11/25 03:32:45;;;;;;;31.23;17.65;;;;;;;3.05;77.97;100013.22;5015186;28;20047;-52
2021/11/25 03:35:12;;;;;;;34.45;18.33;;;;;;;3.05;78.53;100021.06;5026966;28;20045;-52
2021/11/25 03:37:38;;;;;;;32.50;18.38;;;;;;;3.09;77.90;100012.25;5028129;28;20124;-53
2021/11/25 03:40:07;;;;;;;31.25;18.20;;;;;;;3.09;78.28;100014.88;5025328;28;20061;-53
2021/11/25 03:42:33;;;;;;;33.60;18.42;;;;;;;3.13;78.17;100019.16;5013042;28;20044;-53
2021/11/25 03:45:00;;;;;;;32.75;17.90;;;;;;;3.17;77.56;100010.31;5021857;28;20044;-51
2021/11/25 03:47:26;;;;;;;31.48;18.13;;;;;;;3.29;76.99;100005.72;5022626;28;20056;-52
2021/11/25 03:49:53;;;;;;;32.28;17.70;;;;;;;3.37;75.97;99998.53;5028675;28;20048;-53
2021/11/25 03:52:19;;;;;;;32.22;17.65;;;;;;;3.25;76.66;99988.38;5018231;28;20052;-52
2021/11/25 03:54:46;;;;;;;31.42;17.50;;;;;;;3.26;77.03;99990.09;5024500;28;20050;-53
2021/11/25 03:57:12;;;;;;;32.30;18.55;;;;;;;3.22;77.06;99994.53;5027769;28;20423;-51
2021/11/25 03:59:39;;;;;;;34.22;18.83;;;;;;;3.28;77.39;99990.91;5024755;28;20049;-53
2021/11/25 04:02:06;;;;;;;32.35;18.35;;;;;;;3.25;77.13;99980.50;5018640;28;20046;-55
2021/11/25 04:04:33;;;;;;;33.67;19.60;;;;;;;3.16;77.07;99984.19;5025718;28;20103;-52
2021/11/25 04:06:59;;;;;;;35.38;20.17;;;;;;;3.11;77.56;99986.94;5026329;28;20609;-52
2021/11/25 04:09:26;;;;;;;34.63;20.27;;;;;;;3.10;77.63;99985.22;5022082;28;20564;-53
2021/11/25 04:11:52;;;;;;;35.17;20.27;;;;;;;3.10;77.12;99985.22;5016616;28;20045;-52
2021/11/25 04:14:19;;;;;;;35.03;19.63;;;;;;;3.07;77.35;99989.66;5024430;28;20055;-51
2021/11/25 04:16:45;;;;;;;35.45;19.98;;;;;;;3.08;78.27;99989.63;5023489;28;20088;-54
2021/11/25 04:19:12;;;;;;;34.42;20.00;;;;;;;3.13;77.61;99989.53;5027613;28;20443;-54
2021/11/25 04:21:39;;;;;;;34.70;20.02;;;;;;;3.14;77.84;99980.78;5017581;28;20046;-53
2021/11/25 04:24:05;;;;;;;38.60;22.08;;;;;;;3.18;77.36;99980.66;5019892;28;20884;-53
2021/11/25 04:26:32;;;;;;;36.05;19.60;;;;;;;3.16;77.31;99977.19;5022074;28;20047;-52
2021/11/25 04:28:59;;;;;;;35.72;20.45;;;;;;;3.17;77.87;99986.78;5017028;28;20049;-54
2021/11/25 04:36:56;;;;;;;36.10;20.60;;;;;;;3.11;77.86;99970.38;5028038;28;20049;-51
2021/11/25 04:39:23;;;;;;;36.60;21.05;;;;;;;3.09;78.02;99972.16;5023068;28;20192;-54
2021/11/25 04:41:50;;;;;;;35.90;20.10;;;;;;;3.01;78.55;99954.03;5017875;28;20063;-51
2021/11/25 04:44:16;;;;;;;36.72;20.00;;;;;;;3.14;78.77;99975.53;5021822;28;20055;-53
2021/11/25 04:46:43;;;;;;;34.65;20.23;;;;;;;3.21;78.37;99982.34;5022601;28;20071;-52
2021/11/25 04:49:10;;;;;;;33.60;19.75;;;;;;;3.25;77.10;99977.91;5027954;28;20049;-54
2021/11/25 04:51:36;;;;;;;35.15;20.27;;;;;;;3.16;76.70;99961.50;5023202;28;20049;-56
2021/11/25 04:54:03;;;;;;;33.90;19.83;;;;;;;3.23;76.96;99980.53;5015193;28;20132;-54
2021/11/25 04:56:30;;;;;;;34.30;20.88;;;;;;;3.18;77.01;99974.56;5025478;28;20049;-53
2021/11/25 04:58:57;;;;;;;36.42;20.58;;;;;;;3.20;76.81;99979.75;5022720;28;20057;-51
2021/11/25 05:01:23;;;;;;;35.30;20.40;;;;;;;3.07;76.69;99956.50;5022739;28;20407;-53
2021/11/25 05:03:50;;;;;;;35.53;19.67;;;;;;;3.11;76.90;99966.00;5018348;28;20679;-51
2021/11/25 05:06:17;;;;;;;33.63;19.92;;;;;;;2.94;77.52;99947.22;5022102;28;20072;-55
2021/11/25 05:08:43;;;;;;;33.88;19.67;;;;;;;3.05;78.07;99973.97;5022162;28;20056;-53
2021/11/25 05:11:10;;;;;;;37.92;21.48;;;;;;;3.05;78.10;99963.53;5024129;28;20137;-55
2021/11/25 05:13:37;;;;;;;35.85;21.05;;;;;;;3.06;77.89;99965.25;5017873;28;20132;-54
2021/11/25 05:16:04;;;;;;;35.22;20.60;;;;;;;3.04;77.95;99959.19;5026155;28;20065;-53
2021/11/25 05:18:31;;;;;;;34.78;20.33;;;;;;;3.10;77.71;99968.66;5024999;28;20049;-54
2021/11/25 05:20:57;;;;;;;32.92;20.08;;;;;;;3.12;77.85;99962.50;5019966;28;20050;-53
2021/11/25 05:23:24;;;;;;;33.97;19.42;;;;;;;3.17;77.45;99965.84;5016310;28;20049;-53
2021/11/25 05:25:52;;;;;;;35.53;20.23;;;;;;;3.14;77.95;99970.31;5025139;28;20049;-52
2021/11/25 05:28:20;;;;;;;34.22;19.88;;;;;;;3.12;77.51;99977.34;5019635;28;20041;-53
2021/11/25 05:30:47;;;;;;;35.47;19.80;;;;;;;3.10;77.43;99971.28;5021340;28;20045;-56
2021/11/25 05:33:16;;;;;;;33.30;19.38;;;;;;;3.11;78.26;99970.38;5014311;28;20530;-53
2021/11/25 05:35:43;;;;;;;31.70;19.25;;;;;;;3.16;77.38;99971.97;5027383;28;20045;-54
2021/11/25 05:38:09;;;;;;;34.30;20.35;;;;;;;3.16;76.96;99965.88;5019801;28;20044;-53
2021/11/25 05:40:36;;;;;;;30.45;19.75;;;;;;;3.13;77.43;99974.69;5024708;28;20048;-52
2021/11/25 05:43:03;;;;;;;34.58;20.08;;;;;;;3.12;77.44;99969.47;5009766;28;20045;-62
2021/11/25 05:45:29;;;;;;;31.33;18.65;;;;;;;3.15;77.57;99972.00;5026111;28;20052;-52
2021/11/25 05:47:56;;;;;;;36.38;19.42;;;;;;;3.14;77.42;99959.84;5021590;28;20051;-53
2021/11/25 05:50:25;;;;;;;32.53;19.52;;;;;;;3.14;77.09;99960.72;5023837;28;20544;-51
2021/11/25 05:52:55;;;;;;;31.88;18.83;;;;;;;3.20;77.07;99964.06;5017579;28;20466;-53
2021/11/25 05:55:24;;;;;;;34.58;20.23;;;;;;;3.20;77.54;99958.81;5032697;28;20045;-53
2021/11/25 05:57:52;;;;;;;32.53;18.60;;;;;;;3.18;76.59;99969.31;5028620;28;20044;-52
2021/11/25 06:00:19;;;;;;;34.15;19.63;;;;;;;3.16;77.68;99968.50;5023622;28;20491;-53
2021/11/25 06:02:47;;;;;;;36.47;20.52;;;;;;;3.14;77.40;99971.19;5016508;28;20522;-52
2021/11/25 06:05:16;;;;;;;33.78;20.00;;;;;;;3.14;77.80;99968.56;5022387;28;20140;-53
2021/11/25 06:07:46;;;;;;;34.05;20.45;;;;;;;3.15;77.39;99962.41;5022329;28;20631;-54
2021/11/25 06:10:15;;;;;;;34.28;20.00;;;;;;;3.18;77.42;99964.09;5027556;28;20080;-52
2021/11/25 06:12:42;;;;;;;33.95;19.73;;;;;;;3.12;77.41;99959.03;5018491;28;20775;-52
2021/11/25 06:15:09;;;;;;;35.65;20.10;;;;;;;3.12;77.46;99965.13;5027009;28;20057;-53
2021/11/25 06:17:35;;;;;;;34.22;19.70;;;;;;;3.12;78.12;99957.25;5022190;28;20045;-52
2021/11/25 06:20:10;;;;;;;31.52;18.92;;;;;;;3.14;78.12;99954.63;5021746;28;20045;-52
2021/11/25 06:22:43;;;;;;;35.55;20.13;;;;;;;3.14;77.75;99947.63;5009552;28;20058;-55
2021/11/25 06:25:10;;;;;;;31.42;18.42;;;;;;;3.16;77.45;99948.41;5021268;28;20045;-52
2021/11/25 06:27:38;;;;;;;31.58;18.60;;;;;;;3.03;77.18;99936.53;5017142;28;20045;-54
2021/11/25 06:30:09;;;;;;;31.73;18.88;;;;;;;3.14;76.79;99941.53;5016851;28;20045;-55
2021/11/25 06:32:37;;;;;;;29.42;18.17;;;;;;;3.13;77.14;99942.44;5016858;28;20052;-53
2021/11/25 06:35:09;;;;;;;31.80;18.90;;;;;;;3.13;76.80;99940.69;5014250;28;20049;-55
2021/11/25 06:37:41;;;;;;;33.03;18.10;;;;;;;3.17;76.18;99934.44;5013330;28;20079;-52
2021/11/25 06:40:09;;;;;;;29.63;18.23;;;;;;;3.17;75.96;99937.06;5013042;28;20056;-58
2021/11/25 06:42:36;;;;;;;32.80;18.70;;;;;;;3.15;76.47;99936.25;5017895;28;20094;-54
2021/11/25 06:45:03;;;;;;;30.35;18.42;;;;;;;3.15;77.15;99946.69;5020972;28;20384;-52
2021/11/25 06:47:30;;;;;;;31.67;18.38;;;;;;;3.15;76.66;99951.06;5016028;28;20494;-56
2021/11/25 06:49:57;;;;;;;31.95;18.63;;;;;;;3.12;77.05;99943.31;5022759;28;20495;-53
2021/11/25 06:52:23;;;;;;;33.15;19.05;;;;;;;3.18;77.34;99940.53;5018760;28;20393;-51
2021/11/25 06:54:50;;;;;;;31.77;19.35;;;;;;;3.21;77.26;99943.09;5015650;28;20046;-53
2021/11/25 06:57:17;;;;;;;34.60;19.98;;;;;;;3.23;77.21;99943.06;5018109;28;20045;-55
2021/11/25 06:59:43;;;;;;;32.40;19.35;;;;;;;3.15;76.37;99938.84;5009160;28;20561;-52
2021/11/25 07:02:10;;;;;;;33.13;18.95;;;;;;;3.29;76.86;99953.38;5012224;28;20078;-52
2021/11/25 07:04:37;;;;;;;31.77;18.48;;;;;;;3.26;77.00;99948.22;5016034;28;20098;-54
2021/11/25 07:07:04;;;;;;;35.53;18.83;;;;;;;3.26;76.69;99956.94;5022851;28;20124;-53
2021/11/25 07:09:30;;;;;;;33.80;20.02;;;;;;;3.24;77.23;99950.00;5028336;28;20044;-54
2021/11/25 07:11:57;;;;;;;33.25;18.85;;;;;;;3.22;77.40;99951.78;5028664;28;20045;-53
2021/11/25 07:14:23;;;;;;;34.70;19.73;;;;;;;3.24;77.44;99950.88;5021676;28;20049;-51
2021/11/25 07:16:50;;;;;;;32.45;19.80;;;;;;;3.24;76.71;99947.38;5026167;28;20407;-53
2021/11/25 07:19:16;;;;;;;33.58;19.83;;;;;;;3.24;77.27;99947.38;5028926;28;20831;-53
2021/11/25 07:21:43;;;;;;;35.72;19.73;;;;;;;3.26;77.89;99951.69;5030775;28;20124;-52
2021/11/25 07:24:18;;;;;;;34.05;19.67;;;;;;;3.27;77.69;99949.94;5017662;28;20396;-52
2021/11/25 07:26:44;;;;;;;31.85;18.85;;;;;;;3.27;77.14;99950.81;5029691;28;20045;-52
2021/11/25 07:29:11;;;;;;;34.25;20.83;;;;;;;3.26;77.06;99949.09;5026203;28;20049;-53
2021/11/25 07:31:37;;;;;;;31.70;19.45;;;;;;;3.33;76.90;99944.53;5029417;28;20041;-53
2021/11/25 07:34:04;;;;;;;30.23;18.23;;;;;;;3.36;76.71;99954.94;5021103;28;20045;-52
2021/11/25 07:36:30;;;;;;;31.88;19.63;;;;;;;3.32;76.69;99948.91;5022631;28;20132;-53
2021/11/25 07:38:57;;;;;;;31.35;19.30;;;;;;;3.39;76.94;99954.88;5017569;28;20077;-52
2021/11/25 07:41:23;;;;;;;30.90;18.40;;;;;;;3.40;76.41;99956.59;5015214;28;20133;-51
2021/11/25 07:43:50;;;;;;;30.63;18.65;;;;;;;3.46;76.82;99945.97;5013778;28;20049;-52
2021/11/25 07:46:16;;;;;;;29.77;17.90;;;;;;;3.43;75.87;99941.69;5017470;28;20038;-53
2021/11/25 07:48:43;;;;;;;34.00;19.27;;;;;;;3.43;75.85;99951.28;5017822;28;20046;-55
2021/11/25 07:51:09;;;;;;;31.67;18.77;;;;;;;3.46;75.84;99951.22;5017023;28;20419;-54
2021/11/25 07:53:36;;;;;;;32.60;17.45;;;;;;;3.49;76.04;99962.44;5009435;28;20045;-52
2021/11/25 07:56:03;;;;;;;30.00;17.85;;;;;;;3.56;75.12;99971.00;5025673;28;20046;-52
2021/11/25 07:58:29;;;;;;;29.73;17.77;;;;;;;3.50;75.16;99958.06;5019012;28;20046;-52
2021/11/25 08:01:01;;;;;;;30.60;18.60;;;;;;;3.45;75.87;99955.59;5014613;28;20129;-55
2021/11/25 08:03:28;;;;;;;28.67;18.38;;;;;;;3.46;76.04;99951.22;5007359;28;20462;-51
2021/11/25 08:05:54;;;;;;;31.38;18.88;;;;;;;3.50;76.27;99952.84;5016401;28;21247;-53
2021/11/25 08:08:21;;;;;;;33.03;20.23;;;;;;;3.52;76.04;99945.81;5012214;28;20067;-52
2021/11/25 08:10:47;;;;;;;30.15;19.08;;;;;;;3.52;75.62;99941.44;5013778;28;20057;-51
2021/11/25 08:13:14;;;;;;;31.55;19.33;;;;;;;3.57;75.93;99943.94;5009624;28;20044;-53
2021/11/25 08:15:41;;;;;;;32.10;19.58;;;;;;;3.62;75.65;99943.81;5011125;28;20053;-52
2021/11/25 08:18:07;;;;;;;33.45;20.02;;;;;;;3.72;75.32;99953.16;5017794;28;20045;-52
2021/11/25 08:20:34;;;;;;;30.95;18.10;;;;;;;3.72;74.99;99954.00;5015123;28;20491;-52
2021/11/25 08:23:00;;;;;;;35.53;19.42;;;;;;;3.69;79.00;99941.00;5011833;28;20602;-53
2021/11/25 08:25:28;;;;;;;34.08;20.52;;;;;;;3.92;78.02;99963.09;5010813;28;20632;-52
2021/11/25 08:27:56;;;;;;;35.95;20.40;;;;;;;3.95;76.92;99965.63;5011740;28;20060;-55
2021/11/25 08:30:24;;;;;;;33.33;19.02;;;;;;;3.96;76.01;99957.72;5008781;28;20060;-54
2021/11/25 08:32:51;;;;;;;33.10;19.55;;;;;;;3.95;75.66;99953.38;5009521;28;20064;-53
2021/11/25 08:35:18;;;;;;;32.40;20.00;;;;;;;3.87;74.74;99952.75;5007886;28;20045;-52
2021/11/25 08:37:45;;;;;;;32.58;19.70;;;;;;;3.86;75.15;99957.13;5014973;28;20371;-51
2021/11/25 08:40:14;;;;;;;36.08;20.42;;;;;;;3.95;76.25;99950.75;5008964;28;20060;-52
2021/11/25 08:42:41;;;;;;;32.67;20.02;;;;;;;3.87;75.08;99947.50;5016151;28;20057;-53
2021/11/25 08:45:08;;;;;;;38.47;20.52;;;;;;;3.97;75.67;99962.06;5011684;28;20054;-53
2021/11/25 08:47:35;;;;;;;32.88;19.45;;;;;;;4.00;74.28;99961.13;5021522;28;20041;-53
2021/11/25 08:50:07;;;;;;;33.45;18.92;;;;;;;3.99;74.32;99955.03;5010302;28;20101;-54
2021/11/25 08:52:33;;;;;;;33.78;19.25;;;;;;;4.04;74.32;99957.53;5010693;28;20053;-52
2021/11/25 08:55:00;;;;;;;36.60;20.25;;;;;;;4.06;73.83;99961.84;5011383;28;20056;-53
2021/11/25 08:57:27;;;;;;;33.35;19.50;;;;;;;3.99;73.30;99964.66;5027414;28;20167;-55
2021/11/25 08:59:54;;;;;;;36.15;20.73;;;;;;;3.97;73.79;99962.06;5017632;28;20089;-52
2021/11/25 09:02:22;;;;;;;37.78;21.25;;;;;;;3.97;73.26;99974.31;5015122;28;20129;-53
2021/11/25 09:04:48;;;;;;;36.47;21.15;;;;;;;3.88;73.91;99976.28;5009847;28;20769;-53
2021/11/25 09:07:15;;;;;;;40.13;22.38;;;;;;;3.84;74.68;99979.00;5020818;28;20049;-53
2021/11/25 09:09:42;;;;;;;35.78;20.48;;;;;;;3.80;75.29;99977.38;5022660;28;20054;-52
2021/11/25 09:12:09;;;;;;;38.45;22.40;;;;;;;3.73;75.55;99981.06;5013846;28;20049;-52
2021/11/25 09:14:36;;;;;;;38.38;22.15;;;;;;;3.79;75.18;99979.13;5012302;28;20061;-51
2021/11/25 09:17:09;;;;;;;38.17;20.65;;;;;;;3.76;75.14;99963.53;5014208;28;20499;-52
2021/11/25 09:19:36;;;;;;;37.55;20.77;;;;;;;3.78;75.10;99966.94;5021008;28;20045;-52
2021/11/25 09:22:02;;;;;;;35.55;20.95;;;;;;;3.79;74.75;99970.41;5018903;28;20042;-52
2021/11/25 09:24:29;;;;;;;40.05;21.95;;;;;;;3.71;75.39;99973.25;5010330;28;20049;-59
2021/11/25 09:26:56;;;;;;;39.95;21.20;;;;;;;3.71;75.38;99968.00;5016154;28;20123;-54
2021/11/25 09:29:22;;;;;;;36.30;20.42;;;;;;;3.69;75.37;99964.56;5020134;28;20050;-53
2021/11/25 09:31:49;;;;;;;39.70;21.60;;;;;;;3.71;75.69;99959.28;5016354;28;20498;-53
2021/11/25 09:34:15;;;;;;;44.38;22.15;;;;;;;3.59;75.87;99934.28;5010254;28;20048;-52
2021/11/25 09:36:42;;;;;;;36.10;21.25;;;;;;;3.77;75.62;99960.00;5011651;28;20045;-51
2021/11/25 09:39:09;;;;;;;37.60;21.20;;;;;;;3.86;76.14;99959.75;5022617;28;20044;-53
2021/11/25 09:41:36;;;;;;;39.38;21.63;;;;;;;3.86;74.88;99957.13;5010505;28;20041;-51
2021/11/25 09:44:05;;;;;;;39.25;21.77;;;;;;;3.80;75.30;99966.88;5012234;28;20424;-52
2021/11/25 09:46:34;;;;;;;43.72;22.67;;;;;;;3.78;75.64;99968.69;5015359;28;20046;-53
2021/11/25 09:49:01;;;;;;;41.33;22.30;;;;;;;3.76;75.76;99968.75;5022046;28;20060;-53
2021/11/25 09:51:28;;;;;;;38.47;21.30;;;;;;;3.78;75.54;99973.91;5018359;28;20048;-54
2021/11/25 09:53:55;;;;;;;39.00;21.52;;;;;;;3.80;75.34;99977.38;5009076;28;22463;-52
2021/11/25 09:56:22;;;;;;;35.00;20.63;;;;;;;3.82;75.59;99979.06;5024208;28;20059;-54
2021/11/25 09:58:51;;;;;;;39.67;21.55;;;;;;;3.86;75.55;99992.94;5023918;28;20493;-53
2021/11/25 10:01:20;;;;;;;38.80;21.90;;;;;;;3.82;75.96;100001.75;5023276;28;20057;-52
2021/11/25 10:03:49;;;;;;;38.28;22.10;;;;;;;3.78;74.64;99993.13;5019552;28;20053;-52
2021/11/25 10:06:17;;;;;;;38.08;20.90;;;;;;;3.72;74.98;99989.81;5016985;28;20136;-54
2021/11/25 10:08:47;;;;;;;38.90;21.52;;;;;;;3.71;75.39;99983.72;5026375;28;20045;-53
2021/11/25 10:11:35;;;;;;;36.85;20.70;;;;;;;3.75;74.57;99992.34;5015782;28;20596;-53
2021/11/25 10:14:08;;;;;;;34.58;19.90;;;;;;;3.78;75.04;99995.72;5012825;28;20171;-53
2021/11/25 10:16:40;;;;;;;37.55;22.05;;;;;;;3.82;74.85;99988.66;5017677;28;20630;-53
2021/11/25 10:19:13;;;;;;;38.28;20.90;;;;;;;3.87;73.91;99973.69;5011011;28;20053;-52
2021/11/25 10:21:42;;;;;;;34.20;20.73;;;;;;;3.85;74.32;99976.34;5005836;28;20471;-53
2021/11/25 10:24:10;;;;;;;37.95;21.17;;;;;;;3.82;73.66;99971.19;5005166;28;21286;-54
2021/11/25 10:26:36;;;;;;;41.00;22.25;;;;;;;3.77;74.77;99970.47;5010403;28;20045;-52
2021/11/25 10:29:10;;;;;;;40.13;22.83;;;;;;;3.83;74.69;99969.44;5008112;28;20046;-52
2021/11/25 10:31:43;;;;;;;41.95;21.75;;;;;;;3.86;74.73;99956.25;5010703;28;20049;-53
2021/11/25 10:34:19;;;;;;;42.08;22.65;;;;;;;3.81;75.12;99948.53;5003321;28;20779;-54
2021/11/25 10:36:57;;;;;;;40.60;22.50;;;;;;;3.80;75.20;99944.19;5009560;28;20045;-53
2021/11/25 10:42:17;;;;;;;38.88;21.38;;;;;;;3.87;75.95;99935.28;5011793;28;20041;-52
2021/11/25 10:44:46;;;;;;;44.70;23.77;;;;;;;3.89;74.58;99943.09;5006767;28;20053;-52
2021/11/25 10:47:14;;;;;;;44.65;23.77;;;;;;;3.95;74.29;99947.28;5012447;28;20041;-53
2021/11/25 10:49:49;;;;;;;43.45;23.63;;;;;;;3.95;74.86;99950.75;5011682;28;20128;-53
2021/11/25 10:52:30;;;;;;;46.80;24.17;;;;;;;3.99;74.77;99941.94;5016363;28;20056;-52
2021/11/25 10:55:03;;;;;;;43.15;23.80;;;;;;;4.00;74.79;99942.78;4999876;28;20379;-52
2021/11/25 10:57:58;;;;;;;43.38;23.75;;;;;;;4.06;75.24;99940.00;5008453;28;20567;-54
2021/11/25 11:00:33;;;;;;;42.33;23.48;;;;;;;4.14;74.15;99935.41;5012170;28;20064;-53
2021/11/25 11:03:26;;;;;;;44.03;23.30;;;;;;;4.11;74.20;99928.47;5014477;28;20056;-52
2021/11/25 11:06:00;;;;;;;45.08;24.13;;;;;;;4.08;74.09;99935.59;5001328;28;20136;-52
2021/11/25 11:08:30;;;;;;;43.88;22.85;;;;;;;4.10;75.05;99928.53;5004839;28;20049;-57
2021/11/25 11:10:59;;;;;;;41.40;22.67;;;;;;;4.16;74.14;99938.84;5012644;28;20065;-53
2021/11/25 11:19:02;;;;;;;40.97;23.13;;;;;;;4.29;73.76;99919.25;5012762;28;20482;-54
2021/11/25 11:21:40;;;;;;;40.28;22.73;;;;;;;4.41;72.32;99918.88;5017796;28;20599;-54
2021/11/25 11:24:12;;;;;;;38.78;21.92;;;;;;;4.38;72.33;99918.13;5014852;28;20147;-52
2021/11/25 11:26:45;;;;;;;39.05;22.38;;;;;;;4.33;72.90;99915.63;5020165;28;20096;-52
2021/11/25 11:29:15;;;;;;;39.85;21.73;;;;;;;4.35;73.09;99913.84;5019369;28;20068;-53
2021/11/25 11:31:43;;;;;;;39.42;22.45;;;;;;;4.41;73.17;99913.63;5017267;28;20041;-51
2021/11/25 11:34:11;;;;;;;40.35;22.60;;;;;;;4.46;72.24;99909.13;5017058;28;20064;-58
2021/11/25 11:36:40;;;;;;;39.15;21.98;;;;;;;4.49;72.40;99902.94;5018142;28;20053;-53
2021/11/25 11:39:09;;;;;;;36.08;21.60;;;;;;;4.51;72.11;99906.38;5021598;28;20079;-54